sensor_id;sensor_type;location;lat;lon;timestamp;temperature;humidity
13375;DHT22;6756;51.354;15.754;2023-04-07T00:04:15;0.00;99.90
13375;DHT22;6756;51.354;15.754;2023-04-07T00:08:19;0.00;99.90
13375;DHT22;6756;51.354;15.754;2023-04-07T00:12:20;0.10;99.90
13375;DHT22;6756;51.354;15.754;2023-04-07T00:16:21;0.10;99.90
13375;DHT22;6756;51.354;15.754;2023-04-07T00:20:25;0.10;99.90
13375;DHT22;6756;51.354;15.754;2023-04-07T00:24:29;0.10;99.90
13375;DHT22;6756;51.354;15.754;2023-04-07T00:28:31;0.10;99.90
13375;DHT22;6756;51.354;15.754;2023-04-07T00:32:31;0.10;99.90
13375;DHT22;6756;51.354;15.754;2023-04-07T00:36:32;0.20;99.90
13375;DHT22;6756;51.354;15.754;2023-04-07T00:40:34;0.20;99.90
13375;DHT22;6756;51.354;15.754;2023-04-07T00:44:41;0.20;99.90
13375;DHT22;6756;51.354;15.754;2023-04-07T00:48:43;0.30;99.90
13375;DHT22;6756;51.354;15.754;2023-04-07T00:52:44;0.30;99.90
13375;DHT22;6756;51.354;15.754;2023-04-07T00:56:46;0.30;99.90
13375;DHT22;6756;51.354;15.754;2023-04-07T01:01:17;0.40;99.90
13375;DHT22;6756;51.354;15.754;2023-04-07T01:05:35;0.50;99.90
13375;DHT22;6756;51.354;15.754;2023-04-07T01:10:02;0.60;99.90
13375;DHT22;6756;51.354;15.754;2023-04-07T01:14:05;0.70;85.40
13375;DHT22;6756;51.354;15.754;2023-04-07T01:18:16;0.80;40.00
13375;DHT22;6756;51.354;15.754;2023-04-07T01:22:39;0.90;1.00
13375;DHT22;6756;51.354;15.754;2023-04-07T01:26:47;1.00;1.00
13375;DHT22;6756;51.354;15.754;2023-04-07T01:30:49;1.00;1.00
13375;DHT22;6756;51.354;15.754;2023-04-07T01:34:52;1.00;1.00
13375;DHT22;6756;51.354;15.754;2023-04-07T01:38:54;1.00;1.00
13375;DHT22;6756;51.354;15.754;2023-04-07T01:42:56;1.00;1.00
13375;DHT22;6756;51.354;15.754;2023-04-07T01:47:04;1.10;1.20
13375;DHT22;6756;51.354;15.754;2023-04-07T01:51:06;1.10;1.00
13375;DHT22;6756;51.354;15.754;2023-04-07T01:55:27;1.20;1.00
13375;DHT22;6756;51.354;15.754;2023-04-07T01:59:29;1.30;1.00
13375;DHT22;6756;51.354;15.754;2023-04-07T02:08:00;1.40;15.80
13375;DHT22;6756;51.354;15.754;2023-04-07T02:12:07;1.40;26.20
13375;DHT22;6756;51.354;15.754;2023-04-07T02:16:13;1.40;31.60
13375;DHT22;6756;51.354;15.754;2023-04-07T02:20:34;1.40;46.40
13375;DHT22;6756;51.354;15.754;2023-04-07T02:24:46;1.40;51.90
13375;DHT22;6756;51.354;15.754;2023-04-07T02:28:47;1.40;60.70
13375;DHT22;6756;51.354;15.754;2023-04-07T02:32:47;1.40;70.10
13375;DHT22;6756;51.354;15.754;2023-04-07T02:36:48;1.40;89.40
13375;DHT22;6756;51.354;15.754;2023-04-07T02:40:57;1.50;98.30
13375;DHT22;6756;51.354;15.754;2023-04-07T02:45:02;1.40;96.20
13375;DHT22;6756;51.354;15.754;2023-04-07T02:49:03;1.40;99.90
13375;DHT22;6756;51.354;15.754;2023-04-07T02:53:07;1.40;99.90
13375;DHT22;6756;51.354;15.754;2023-04-07T02:57:11;1.50;99.90
13375;DHT22;6756;51.354;15.754;2023-04-07T03:01:13;1.50;99.90
13375;DHT22;6756;51.354;15.754;2023-04-07T03:05:14;1.50;99.90
13375;DHT22;6756;51.354;15.754;2023-04-07T03:09:15;1.50;99.90
13375;DHT22;6756;51.354;15.754;2023-04-07T03:13:17;1.60;99.90
13375;DHT22;6756;51.354;15.754;2023-04-07T03:17:28;1.60;99.30
13375;DHT22;6756;51.354;15.754;2023-04-07T03:21:31;1.70;74.50
13375;DHT22;6756;51.354;15.754;2023-04-07T03:25:32;1.70;23.50
13375;DHT22;6756;51.354;15.754;2023-04-07T03:29:33;1.70;1.00
13375;DHT22;6756;51.354;15.754;2023-04-07T03:33:34;1.70;23.20
13375;DHT22;6756;51.354;15.754;2023-04-07T03:37:35;1.70;24.20
13375;DHT22;6756;51.354;15.754;2023-04-07T03:42:00;1.80;33.90
13375;DHT22;6756;51.354;15.754;2023-04-07T03:46:14;1.90;47.10
13375;DHT22;6756;51.354;15.754;2023-04-07T03:50:49;1.90;50.30
13375;DHT22;6756;51.354;15.754;2023-04-07T03:55:26;1.90;50.10
13375;DHT22;6756;51.354;15.754;2023-04-07T03:59:30;2.00;56.40
13375;DHT22;6756;51.354;15.754;2023-04-07T04:03:47;2.00;65.00
13375;DHT22;6756;51.354;15.754;2023-04-07T04:07:51;2.00;73.50
13375;DHT22;6756;51.354;15.754;2023-04-07T04:11:52;2.10;95.70
13375;DHT22;6756;51.354;15.754;2023-04-07T04:15:53;2.10;99.90
13375;DHT22;6756;51.354;15.754;2023-04-07T04:19:57;2.10;92.20
13375;DHT22;6756;51.354;15.754;2023-04-07T04:23:59;2.10;50.00
13375;DHT22;6756;51.354;15.754;2023-04-07T04:28:06;2.20;56.50
13375;DHT22;6756;51.354;15.754;2023-04-07T04:32:13;2.20;43.40
13375;DHT22;6756;51.354;15.754;2023-04-07T04:36:17;2.20;20.60
13375;DHT22;6756;51.354;15.754;2023-04-07T04:40:21;2.30;7.40
13375;DHT22;6756;51.354;15.754;2023-04-07T04:44:25;2.30;7.00
13375;DHT22;6756;51.354;15.754;2023-04-07T04:48:31;2.40;1.00
13375;DHT22;6756;51.354;15.754;2023-04-07T04:52:32;2.40;1.00
13375;DHT22;6756;51.354;15.754;2023-04-07T04:56:34;2.40;1.00
13375;DHT22;6756;51.354;15.754;2023-04-07T05:00:48;2.50;1.00
13375;DHT22;6756;51.354;15.754;2023-04-07T05:05:00;2.50;1.00
13375;DHT22;6756;51.354;15.754;2023-04-07T05:09:01;2.60;1.00
13375;DHT22;6756;51.354;15.754;2023-04-07T05:13:02;2.60;1.00
13375;DHT22;6756;51.354;15.754;2023-04-07T05:17:25;2.70;1.00
13375;DHT22;6756;51.354;15.754;2023-04-07T05:21:55;2.70;1.00
13375;DHT22;6756;51.354;15.754;2023-04-07T05:25:56;2.70;1.00
13375;DHT22;6756;51.354;15.754;2023-04-07T05:30:18;2.70;12.40
13375;DHT22;6756;51.354;15.754;2023-04-07T05:34:19;2.70;70.00
13375;DHT22;6756;51.354;15.754;2023-04-07T05:38:23;2.70;91.80
13375;DHT22;6756;51.354;15.754;2023-04-07T05:42:24;2.70;78.60
13375;DHT22;6756;51.354;15.754;2023-04-07T05:46:26;2.80;25.80
13375;DHT22;6756;51.354;15.754;2023-04-07T05:50:28;2.90;23.40
13375;DHT22;6756;51.354;15.754;2023-04-07T05:54:30;3.00;8.90
13375;DHT22;6756;51.354;15.754;2023-04-07T05:58:31;3.20;14.60
13375;DHT22;6756;51.354;15.754;2023-04-07T06:02:50;3.40;9.40
13375;DHT22;6756;51.354;15.754;2023-04-07T06:06:51;3.50;5.80
13375;DHT22;6756;51.354;15.754;2023-04-07T06:10:54;3.60;1.00
13375;DHT22;6756;51.354;15.754;2023-04-07T06:14:56;3.60;1.00
13375;DHT22;6756;51.354;15.754;2023-04-07T06:18:57;3.60;1.00
13375;DHT22;6756;51.354;15.754;2023-04-07T06:22:58;3.70;1.00
13375;DHT22;6756;51.354;15.754;2023-04-07T06:27:05;3.80;1.00
13375;DHT22;6756;51.354;15.754;2023-04-07T06:31:07;3.70;1.00
13375;DHT22;6756;51.354;15.754;2023-04-07T06:35:08;3.70;1.00
13375;DHT22;6756;51.354;15.754;2023-04-07T06:39:12;3.80;1.00
13375;DHT22;6756;51.354;15.754;2023-04-07T06:43:16;3.90;1.00
13375;DHT22;6756;51.354;15.754;2023-04-07T06:47:19;3.90;1.00
13375;DHT22;6756;51.354;15.754;2023-04-07T06:51:21;3.90;1.00
13375;DHT22;6756;51.354;15.754;2023-04-07T06:55:42;4.00;1.00
13375;DHT22;6756;51.354;15.754;2023-04-07T06:59:45;4.10;1.00
13375;DHT22;6756;51.354;15.754;2023-04-07T07:04:11;4.20;1.00
13375;DHT22;6756;51.354;15.754;2023-04-07T07:08:12;4.20;1.00
13375;DHT22;6756;51.354;15.754;2023-04-07T07:12:13;4.10;1.00
13375;DHT22;6756;51.354;15.754;2023-04-07T07:16:17;4.20;1.00
13375;DHT22;6756;51.354;15.754;2023-04-07T07:20:19;4.20;1.00
13375;DHT22;6756;51.354;15.754;2023-04-07T07:24:20;4.10;1.00
13375;DHT22;6756;51.354;15.754;2023-04-07T07:28:21;4.10;1.00
13375;DHT22;6756;51.354;15.754;2023-04-07T07:32:23;4.20;1.00
13375;DHT22;6756;51.354;15.754;2023-04-07T07:36:24;4.40;1.00
13375;DHT22;6756;51.354;15.754;2023-04-07T07:40:26;4.50;1.00
13375;DHT22;6756;51.354;15.754;2023-04-07T07:44:27;4.60;1.00
13375;DHT22;6756;51.354;15.754;2023-04-07T07:48:28;4.80;1.00
13375;DHT22;6756;51.354;15.754;2023-04-07T07:52:29;4.90;1.00
13375;DHT22;6756;51.354;15.754;2023-04-07T07:56:30;5.00;1.00
13375;DHT22;6756;51.354;15.754;2023-04-07T08:00:31;5.00;1.00
13375;DHT22;6756;51.354;15.754;2023-04-07T08:04:32;5.10;1.00
13375;DHT22;6756;51.354;15.754;2023-04-07T08:08:33;4.90;1.00
13375;DHT22;6756;51.354;15.754;2023-04-07T08:12:35;5.10;1.00
13375;DHT22;6756;51.354;15.754;2023-04-07T08:16:36;4.90;1.00
13375;DHT22;6756;51.354;15.754;2023-04-07T08:20:37;4.70;1.00
13375;DHT22;6756;51.354;15.754;2023-04-07T08:24:44;4.60;1.00
13375;DHT22;6756;51.354;15.754;2023-04-07T08:28:45;4.80;1.00
13375;DHT22;6756;51.354;15.754;2023-04-07T08:32:51;4.50;1.00
13375;DHT22;6756;51.354;15.754;2023-04-07T08:36:52;4.50;1.00
13375;DHT22;6756;51.354;15.754;2023-04-07T08:41:06;4.60;1.00
13375;DHT22;6756;51.354;15.754;2023-04-07T08:45:15;4.60;1.00
13375;DHT22;6756;51.354;15.754;2023-04-07T08:49:20;4.40;1.00
13375;DHT22;6756;51.354;15.754;2023-04-07T08:53:29;4.50;1.00
13375;DHT22;6756;51.354;15.754;2023-04-07T08:57:32;4.50;1.00
13375;DHT22;6756;51.354;15.754;2023-04-07T09:01:34;4.70;1.00
13375;DHT22;6756;51.354;15.754;2023-04-07T09:05:39;4.90;1.00
13375;DHT22;6756;51.354;15.754;2023-04-07T09:09:43;4.80;1.00
13375;DHT22;6756;51.354;15.754;2023-04-07T09:13:48;4.90;1.00
13375;DHT22;6756;51.354;15.754;2023-04-07T09:17:49;5.10;1.00
13375;DHT22;6756;51.354;15.754;2023-04-07T09:21:51;4.90;1.00
13375;DHT22;6756;51.354;15.754;2023-04-07T09:25:53;4.90;1.00
13375;DHT22;6756;51.354;15.754;2023-04-07T09:30:10;4.90;1.00
13375;DHT22;6756;51.354;15.754;2023-04-07T09:34:28;4.70;1.00
13375;DHT22;6756;51.354;15.754;2023-04-07T09:38:38;4.30;1.00
13375;DHT22;6756;51.354;15.754;2023-04-07T09:42:49;4.20;1.00
13375;DHT22;6756;51.354;15.754;2023-04-07T09:46:57;4.20;1.00
13375;DHT22;6756;51.354;15.754;2023-04-07T09:51:06;4.20;1.00
13375;DHT22;6756;51.354;15.754;2023-04-07T09:55:07;4.20;1.00
13375;DHT22;6756;51.354;15.754;2023-04-07T09:59:09;4.30;1.00
13375;DHT22;6756;51.354;15.754;2023-04-07T10:03:10;4.50;1.00
13375;DHT22;6756;51.354;15.754;2023-04-07T10:07:12;4.50;1.00
13375;DHT22;6756;51.354;15.754;2023-04-07T10:11:22;4.40;1.00
13375;DHT22;6756;51.354;15.754;2023-04-07T10:15:23;4.20;1.00
13375;DHT22;6756;51.354;15.754;2023-04-07T10:19:25;4.30;1.00
13375;DHT22;6756;51.354;15.754;2023-04-07T10:23:55;4.30;1.00
13375;DHT22;6756;51.354;15.754;2023-04-07T10:28:07;4.40;1.00
13375;DHT22;6756;51.354;15.754;2023-04-07T10:32:13;4.80;1.00
13375;DHT22;6756;51.354;15.754;2023-04-07T10:36:14;4.70;1.00
13375;DHT22;6756;51.354;15.754;2023-04-07T10:44:46;4.50;1.00
13375;DHT22;6756;51.354;15.754;2023-04-07T10:49:10;4.10;5.00
13375;DHT22;6756;51.354;15.754;2023-04-07T10:53:13;4.10;41.70
13375;DHT22;6756;51.354;15.754;2023-04-07T10:57:15;4.20;34.90
13375;DHT22;6756;51.354;15.754;2023-04-07T11:01:17;4.10;60.50
13375;DHT22;6756;51.354;15.754;2023-04-07T11:05:20;4.00;99.90
13375;DHT22;6756;51.354;15.754;2023-04-07T11:09:27;4.00;99.90
13375;DHT22;6756;51.354;15.754;2023-04-07T11:13:28;4.00;99.90
13375;DHT22;6756;51.354;15.754;2023-04-07T11:17:42;4.10;99.90
13375;DHT22;6756;51.354;15.754;2023-04-07T11:21:43;4.20;99.90
13375;DHT22;6756;51.354;15.754;2023-04-07T11:25:46;4.20;99.90
13375;DHT22;6756;51.354;15.754;2023-04-07T11:29:48;4.20;99.90
13375;DHT22;6756;51.354;15.754;2023-04-07T11:33:57;4.20;99.90
13375;DHT22;6756;51.354;15.754;2023-04-07T11:37:59;4.20;99.90
13375;DHT22;6756;51.354;15.754;2023-04-07T11:42:01;4.20;99.90
13375;DHT22;6756;51.354;15.754;2023-04-07T11:46:04;4.20;99.90
13375;DHT22;6756;51.354;15.754;2023-04-07T11:50:05;4.20;99.90
13375;DHT22;6756;51.354;15.754;2023-04-07T11:54:07;4.30;99.90
13375;DHT22;6756;51.354;15.754;2023-04-07T11:58:17;4.60;99.90
13375;DHT22;6756;51.354;15.754;2023-04-07T12:02:32;4.80;71.10
13375;DHT22;6756;51.354;15.754;2023-04-07T12:06:36;5.10;58.80
13375;DHT22;6756;51.354;15.754;2023-04-07T12:10:38;5.20;23.80
13375;DHT22;6756;51.354;15.754;2023-04-07T12:14:49;5.30;1.00
13375;DHT22;6756;51.354;15.754;2023-04-07T12:18:56;5.10;1.60
13375;DHT22;6756;51.354;15.754;2023-04-07T12:23:02;5.10;23.50
13375;DHT22;6756;51.354;15.754;2023-04-07T12:27:03;5.10;13.00
13375;DHT22;6756;51.354;15.754;2023-04-07T12:31:07;4.80;31.90
13375;DHT22;6756;51.354;15.754;2023-04-07T12:35:08;4.80;35.20
13375;DHT22;6756;51.354;15.754;2023-04-07T12:39:09;4.70;61.10
13375;DHT22;6756;51.354;15.754;2023-04-07T12:43:25;4.90;51.80
13375;DHT22;6756;51.354;15.754;2023-04-07T12:47:32;4.90;41.80
13375;DHT22;6756;51.354;15.754;2023-04-07T12:51:33;4.90;29.20
13375;DHT22;6756;51.354;15.754;2023-04-07T12:55:37;5.00;18.10
13375;DHT22;6756;51.354;15.754;2023-04-07T12:59:49;5.10;11.00
13375;DHT22;6756;51.354;15.754;2023-04-07T13:03:52;5.20;21.90
13375;DHT22;6756;51.354;15.754;2023-04-07T13:08:00;5.10;22.30
13375;DHT22;6756;51.354;15.754;2023-04-07T13:12:04;4.90;43.90
13375;DHT22;6756;51.354;15.754;2023-04-07T13:16:05;5.00;45.70
13375;DHT22;6756;51.354;15.754;2023-04-07T13:20:07;5.10;61.70
13375;DHT22;6756;51.354;15.754;2023-04-07T13:24:26;5.10;29.30
13375;DHT22;6756;51.354;15.754;2023-04-07T13:28:30;5.00;90.80
13375;DHT22;6756;51.354;15.754;2023-04-07T13:32:37;5.20;99.90
13375;DHT22;6756;51.354;15.754;2023-04-07T13:36:39;5.30;88.90
13375;DHT22;6756;51.354;15.754;2023-04-07T13:40:59;5.40;89.80
13375;DHT22;6756;51.354;15.754;2023-04-07T13:45:09;5.30;86.90
13375;DHT22;6756;51.354;15.754;2023-04-07T13:49:10;5.40;99.90
13375;DHT22;6756;51.354;15.754;2023-04-07T13:53:17;5.40;99.90
13375;DHT22;6756;51.354;15.754;2023-04-07T13:57:29;5.30;75.40
13375;DHT22;6756;51.354;15.754;2023-04-07T14:01:34;5.20;99.90
13375;DHT22;6756;51.354;15.754;2023-04-07T14:05:39;5.20;99.90
13375;DHT22;6756;51.354;15.754;2023-04-07T14:09:44;5.20;96.20
13375;DHT22;6756;51.354;15.754;2023-04-07T14:13:48;5.20;99.90
13375;DHT22;6756;51.354;15.754;2023-04-07T14:17:49;5.30;57.10
13375;DHT22;6756;51.354;15.754;2023-04-07T14:21:54;5.20;99.90
13375;DHT22;6756;51.354;15.754;2023-04-07T14:25:58;5.10;99.90
13375;DHT22;6756;51.354;15.754;2023-04-07T14:29:59;5.20;98.90
13375;DHT22;6756;51.354;15.754;2023-04-07T14:34:01;5.30;99.90
13375;DHT22;6756;51.354;15.754;2023-04-07T14:38:02;5.30;99.90
13375;DHT22;6756;51.354;15.754;2023-04-07T14:42:06;5.20;99.90
13375;DHT22;6756;51.354;15.754;2023-04-07T14:46:07;5.20;99.90
13375;DHT22;6756;51.354;15.754;2023-04-07T14:50:14;5.20;99.90
13375;DHT22;6756;51.354;15.754;2023-04-07T14:54:30;5.30;99.90
13375;DHT22;6756;51.354;15.754;2023-04-07T14:58:41;5.20;99.90
13375;DHT22;6756;51.354;15.754;2023-04-07T15:02:42;5.10;99.90
13375;DHT22;6756;51.354;15.754;2023-04-07T15:06:50;5.10;99.90
13375;DHT22;6756;51.354;15.754;2023-04-07T15:10:54;5.00;99.90
13375;DHT22;6756;51.354;15.754;2023-04-07T15:14:56;5.00;99.90
13375;DHT22;6756;51.354;15.754;2023-04-07T15:18:57;5.00;99.90
13375;DHT22;6756;51.354;15.754;2023-04-07T15:23:02;5.00;99.90
13375;DHT22;6756;51.354;15.754;2023-04-07T15:27:04;4.90;99.90
13375;DHT22;6756;51.354;15.754;2023-04-07T15:31:16;4.80;99.90
13375;DHT22;6756;51.354;15.754;2023-04-07T15:35:17;4.80;1.00
13375;DHT22;6756;51.354;15.754;2023-04-07T15:39:21;4.70;1.00
13375;DHT22;6756;51.354;15.754;2023-04-07T15:43:22;4.70;1.00
13375;DHT22;6756;51.354;15.754;2023-04-07T15:47:34;4.60;1.00
13375;DHT22;6756;51.354;15.754;2023-04-07T15:51:36;4.50;1.00
13375;DHT22;6756;51.354;15.754;2023-04-07T15:55:39;4.50;1.00
13375;DHT22;6756;51.354;15.754;2023-04-07T15:59:41;4.50;94.10
13375;DHT22;6756;51.354;15.754;2023-04-07T16:03:42;4.50;99.90
13375;DHT22;6756;51.354;15.754;2023-04-07T16:07:43;4.40;99.90
13375;DHT22;6756;51.354;15.754;2023-04-07T16:11:44;4.40;99.90
13375;DHT22;6756;51.354;15.754;2023-04-07T16:15:44;4.30;1.00
13375;DHT22;6756;51.354;15.754;2023-04-07T16:19:45;4.30;99.90
13375;DHT22;6756;51.354;15.754;2023-04-07T16:23:47;4.30;99.90
13375;DHT22;6756;51.354;15.754;2023-04-07T16:27:50;4.30;1.00
13375;DHT22;6756;51.354;15.754;2023-04-07T16:31:51;4.20;1.00
13375;DHT22;6756;51.354;15.754;2023-04-07T16:35:53;4.20;99.90
13375;DHT22;6756;51.354;15.754;2023-04-07T16:39:54;4.10;98.20
13375;DHT22;6756;51.354;15.754;2023-04-07T16:43:56;4.10;99.90
13375;DHT22;6756;51.354;15.754;2023-04-07T16:47:57;4.10;99.90
13375;DHT22;6756;51.354;15.754;2023-04-07T16:52:02;4.10;1.00
13375;DHT22;6756;51.354;15.754;2023-04-07T16:56:19;4.00;99.90
13375;DHT22;6756;51.354;15.754;2023-04-07T17:00:21;4.00;99.90
13375;DHT22;6756;51.354;15.754;2023-04-07T17:04:22;4.00;1.00
13375;DHT22;6756;51.354;15.754;2023-04-07T17:08:23;4.00;99.90
13375;DHT22;6756;51.354;15.754;2023-04-07T17:12:25;3.90;99.90
13375;DHT22;6756;51.354;15.754;2023-04-07T17:16:28;3.90;99.90
13375;DHT22;6756;51.354;15.754;2023-04-07T17:20:29;3.90;99.90
13375;DHT22;6756;51.354;15.754;2023-04-07T17:24:30;3.90;99.90
13375;DHT22;6756;51.354;15.754;2023-04-07T17:28:40;3.90;99.90
13375;DHT22;6756;51.354;15.754;2023-04-07T17:32:41;3.90;99.90
13375;DHT22;6756;51.354;15.754;2023-04-07T17:36:43;3.90;99.90
13375;DHT22;6756;51.354;15.754;2023-04-07T17:40:44;3.90;99.90
13375;DHT22;6756;51.354;15.754;2023-04-07T17:44:45;3.90;99.90
13375;DHT22;6756;51.354;15.754;2023-04-07T17:48:52;3.90;99.90
13375;DHT22;6756;51.354;15.754;2023-04-07T17:52:55;3.80;99.90
13375;DHT22;6756;51.354;15.754;2023-04-07T17:56:56;3.80;99.90
13375;DHT22;6756;51.354;15.754;2023-04-07T18:00:57;3.80;99.90
13375;DHT22;6756;51.354;15.754;2023-04-07T18:04:59;3.80;99.90
13375;DHT22;6756;51.354;15.754;2023-04-07T18:09:17;3.80;99.90
13375;DHT22;6756;51.354;15.754;2023-04-07T18:13:18;3.80;99.90
13375;DHT22;6756;51.354;15.754;2023-04-07T18:17:22;3.70;99.90
13375;DHT22;6756;51.354;15.754;2023-04-07T18:21:26;3.70;99.90
13375;DHT22;6756;51.354;15.754;2023-04-07T18:25:29;3.70;99.90
13375;DHT22;6756;51.354;15.754;2023-04-07T18:29:30;3.70;99.90
13375;DHT22;6756;51.354;15.754;2023-04-07T18:33:31;3.70;99.90
13375;DHT22;6756;51.354;15.754;2023-04-07T18:37:35;3.70;99.90
13375;DHT22;6756;51.354;15.754;2023-04-07T18:41:36;3.70;99.90
13375;DHT22;6756;51.354;15.754;2023-04-07T18:45:42;3.80;99.90
13375;DHT22;6756;51.354;15.754;2023-04-07T18:49:45;3.80;99.90
13375;DHT22;6756;51.354;15.754;2023-04-07T18:53:46;3.70;99.90
13375;DHT22;6756;51.354;15.754;2023-04-07T18:57:50;3.70;99.90
13375;DHT22;6756;51.354;15.754;2023-04-07T19:01:56;3.70;99.90
13375;DHT22;6756;51.354;15.754;2023-04-07T19:06:04;3.70;99.90
13375;DHT22;6756;51.354;15.754;2023-04-07T19:10:11;3.70;99.90
13375;DHT22;6756;51.354;15.754;2023-04-07T19:14:17;3.70;99.90
13375;DHT22;6756;51.354;15.754;2023-04-07T19:18:24;3.70;99.90
13375;DHT22;6756;51.354;15.754;2023-04-07T19:22:26;3.70;99.90
13375;DHT22;6756;51.354;15.754;2023-04-07T19:26:28;3.70;99.90
13375;DHT22;6756;51.354;15.754;2023-04-07T19:30:30;3.70;99.90
13375;DHT22;6756;51.354;15.754;2023-04-07T19:34:31;3.70;99.90
13375;DHT22;6756;51.354;15.754;2023-04-07T19:38:38;3.70;99.90
13375;DHT22;6756;51.354;15.754;2023-04-07T19:42:40;3.70;99.90
13375;DHT22;6756;51.354;15.754;2023-04-07T19:46:51;3.70;99.90
13375;DHT22;6756;51.354;15.754;2023-04-07T19:50:53;3.70;99.90
13375;DHT22;6756;51.354;15.754;2023-04-07T19:54:54;3.70;99.90
13375;DHT22;6756;51.354;15.754;2023-04-07T19:58:55;3.70;99.90
13375;DHT22;6756;51.354;15.754;2023-04-07T20:02:56;3.70;99.90
13375;DHT22;6756;51.354;15.754;2023-04-07T20:06:57;3.70;99.90
13375;DHT22;6756;51.354;15.754;2023-04-07T20:11:02;3.70;99.90
13375;DHT22;6756;51.354;15.754;2023-04-07T20:15:04;3.70;99.90
13375;DHT22;6756;51.354;15.754;2023-04-07T20:19:06;3.70;99.90
13375;DHT22;6756;51.354;15.754;2023-04-07T20:23:07;3.70;99.90
13375;DHT22;6756;51.354;15.754;2023-04-07T20:27:08;3.70;99.90
13375;DHT22;6756;51.354;15.754;2023-04-07T20:31:13;3.70;99.90
13375;DHT22;6756;51.354;15.754;2023-04-07T20:35:14;3.70;99.90
13375;DHT22;6756;51.354;15.754;2023-04-07T20:39:16;3.70;99.90
13375;DHT22;6756;51.354;15.754;2023-04-07T20:43:18;3.70;99.90
13375;DHT22;6756;51.354;15.754;2023-04-07T20:47:22;3.70;99.90
13375;DHT22;6756;51.354;15.754;2023-04-07T20:51:24;3.70;99.90
13375;DHT22;6756;51.354;15.754;2023-04-07T20:55:25;3.70;99.90
13375;DHT22;6756;51.354;15.754;2023-04-07T20:59:29;3.70;99.90
13375;DHT22;6756;51.354;15.754;2023-04-07T21:03:33;3.70;99.90
13375;DHT22;6756;51.354;15.754;2023-04-07T21:07:36;3.70;99.90
13375;DHT22;6756;51.354;15.754;2023-04-07T21:11:37;3.70;99.90
13375;DHT22;6756;51.354;15.754;2023-04-07T21:15:41;3.70;99.90
13375;DHT22;6756;51.354;15.754;2023-04-07T21:19:43;3.70;99.90
13375;DHT22;6756;51.354;15.754;2023-04-07T21:23:48;3.70;99.90
13375;DHT22;6756;51.354;15.754;2023-04-07T21:27:49;3.70;99.90
13375;DHT22;6756;51.354;15.754;2023-04-07T21:31:50;3.70;99.90
13375;DHT22;6756;51.354;15.754;2023-04-07T21:35:51;3.70;99.90
13375;DHT22;6756;51.354;15.754;2023-04-07T21:39:56;3.70;99.90
13375;DHT22;6756;51.354;15.754;2023-04-07T21:44:00;3.70;99.90
13375;DHT22;6756;51.354;15.754;2023-04-07T21:48:01;3.70;99.90
13375;DHT22;6756;51.354;15.754;2023-04-07T21:52:06;3.70;99.90
13375;DHT22;6756;51.354;15.754;2023-04-07T21:56:17;3.70;99.90
13375;DHT22;6756;51.354;15.754;2023-04-07T22:00:18;3.70;99.90
13375;DHT22;6756;51.354;15.754;2023-04-07T22:04:19;3.70;99.90
13375;DHT22;6756;51.354;15.754;2023-04-07T22:08:21;3.70;99.90
13375;DHT22;6756;51.354;15.754;2023-04-07T22:12:22;3.70;99.90
13375;DHT22;6756;51.354;15.754;2023-04-07T22:16:23;3.70;99.90
13375;DHT22;6756;51.354;15.754;2023-04-07T22:20:24;3.70;99.90
13375;DHT22;6756;51.354;15.754;2023-04-07T22:24:26;3.70;99.90
13375;DHT22;6756;51.354;15.754;2023-04-07T22:28:27;3.70;99.90
13375;DHT22;6756;51.354;15.754;2023-04-07T22:32:28;3.70;99.90
13375;DHT22;6756;51.354;15.754;2023-04-07T22:36:29;3.80;99.90
13375;DHT22;6756;51.354;15.754;2023-04-07T22:40:32;3.80;99.90
13375;DHT22;6756;51.354;15.754;2023-04-07T22:44:36;3.80;99.90
13375;DHT22;6756;51.354;15.754;2023-04-07T22:48:40;3.80;99.90
13375;DHT22;6756;51.354;15.754;2023-04-07T22:52:41;3.80;99.90
13375;DHT22;6756;51.354;15.754;2023-04-07T22:56:43;3.80;99.90
13375;DHT22;6756;51.354;15.754;2023-04-07T23:00:44;3.80;99.90
13375;DHT22;6756;51.354;15.754;2023-04-07T23:04:48;3.80;99.90
13375;DHT22;6756;51.354;15.754;2023-04-07T23:08:50;3.80;99.90
13375;DHT22;6756;51.354;15.754;2023-04-07T23:12:55;3.80;99.90
13375;DHT22;6756;51.354;15.754;2023-04-07T23:16:56;3.80;99.90
13375;DHT22;6756;51.354;15.754;2023-04-07T23:20:57;3.80;99.90
13375;DHT22;6756;51.354;15.754;2023-04-07T23:24:58;3.80;99.90
13375;DHT22;6756;51.354;15.754;2023-04-07T23:29:00;3.80;99.90
13375;DHT22;6756;51.354;15.754;2023-04-07T23:33:01;3.80;99.90
13375;DHT22;6756;51.354;15.754;2023-04-07T23:37:08;3.90;99.90
13375;DHT22;6756;51.354;15.754;2023-04-07T23:41:09;3.90;99.90
13375;DHT22;6756;51.354;15.754;2023-04-07T23:45:10;3.90;99.90
13375;DHT22;6756;51.354;15.754;2023-04-07T23:49:14;3.90;99.90
13375;DHT22;6756;51.354;15.754;2023-04-07T23:53:15;3.90;99.90
13375;DHT22;6756;51.354;15.754;2023-04-07T23:57:16;3.90;99.90
